createdAt,value
2019-02-05T00:00:33.810Z,33.5
2019-02-05T00:01:21.514Z,33.8
2019-02-05T00:02:11.273Z,34
2019-02-05T00:03:01.611Z,34.3
2019-02-05T00:03:53.859Z,34.4
2019-02-05T00:04:40.401Z,34.6
2019-02-05T00:05:32.068Z,34.3
2019-02-05T00:06:21.966Z,34
2019-02-05T00:07:11.346Z,33.6
2019-02-05T00:08:01.945Z,33.4
2019-02-05T00:08:52.846Z,33.1
2019-02-05T00:09:44.156Z,32.9
2019-02-05T00:10:30.816Z,32.7
2019-02-05T00:11:21.887Z,32.5
2019-02-05T00:12:11.796Z,32.3
2019-02-05T00:13:03.821Z,32.2
2019-02-05T00:13:51.615Z,32
2019-02-05T00:14:41.988Z,31.9
2019-02-05T00:15:32.894Z,31.4
2019-02-05T00:16:22.088Z,31.1
2019-02-05T00:17:12.661Z,30.8
2019-02-05T00:18:02.283Z,30.6
2019-02-05T00:18:55.755Z,30.5
2019-02-05T00:19:42.785Z,29.7
2019-02-05T00:20:32.937Z,30.6
2019-02-05T00:21:22.446Z,31.3
2019-02-05T00:22:13.175Z,31.7
2019-02-05T00:23:02.280Z,32.2
2019-02-05T00:23:52.352Z,32.6
2019-02-05T00:24:43.414Z,32.9
2019-02-05T00:25:32.772Z,33.3
2019-02-05T00:26:23.798Z,33.6
2019-02-05T00:27:13.632Z,33.8
2019-02-05T00:28:06.532Z,34.1
2019-02-05T00:28:53.693Z,34.3
2019-02-05T00:29:43.427Z,34.5
2019-02-05T00:30:32.767Z,34.7
2019-02-05T00:31:24.479Z,34.1
2019-02-05T00:32:13.109Z,33.9
2019-02-05T00:33:02.500Z,33.6
2019-02-05T00:33:54.246Z,33.3
2019-02-05T00:34:43.682Z,33.1
2019-02-05T00:35:34.459Z,32.9
2019-02-05T00:36:23.377Z,32.6
2019-02-05T00:37:16.487Z,32.4
2019-02-05T00:38:04.082Z,32.3
2019-02-05T00:38:54.419Z,32.1
2019-02-05T00:39:44.181Z,31.9
2019-02-05T00:40:36.142Z,31.9
2019-02-05T00:41:24.849Z,31.3
2019-02-05T00:42:14.896Z,31.1
2019-02-05T00:43:04.852Z,30.8
2019-02-05T00:43:54.759Z,30.6
2019-02-05T00:44:44.629Z,30.4
2019-02-05T00:45:35.146Z,29.6
2019-02-05T00:46:26.250Z,30.6
2019-02-05T00:47:14.769Z,31.2
2019-02-05T00:48:05.246Z,31.8
2019-02-05T00:48:55.095Z,32.2
2019-02-05T00:49:46.672Z,32.6
2019-02-05T00:50:34.784Z,32.9
2019-02-05T00:51:24.966Z,33.3
2019-02-05T00:52:16.066Z,33.6
2019-02-05T00:53:05.409Z,33.9
2019-02-05T00:53:56.078Z,34.1
2019-02-05T00:54:45.668Z,34.3
2019-02-05T00:55:37.670Z,34.5
2019-02-05T00:56:27.570Z,34.7
2019-02-05T00:57:16.242Z,34.1
2019-02-05T00:58:05.341Z,33.9
2019-02-05T00:58:57.291Z,33.5
2019-02-05T00:59:45.923Z,33.3
2019-02-05T01:00:36.308Z,33.1
2019-02-05T01:01:26.809Z,32.8
2019-02-05T01:02:16.093Z,32.6
2019-02-05T01:03:06.928Z,32.4
2019-02-05T01:03:56.093Z,32.3
2019-02-05T01:04:49.507Z,32.1
2019-02-05T01:05:36.040Z,31.9
2019-02-05T01:06:26.327Z,31.9
2019-02-05T01:07:16.647Z,31.4
2019-02-05T01:08:08.165Z,31.1
2019-02-05T01:08:57.082Z,30.8
2019-02-05T01:09:46.285Z,30.6
2019-02-05T01:10:37.530Z,30.4
2019-02-05T01:11:27.359Z,29.6
2019-02-05T01:12:16.185Z,30.4
2019-02-05T01:13:05.903Z,31.1
2019-02-05T01:13:58.847Z,31.6
2019-02-05T01:14:46.184Z,32.1
2019-02-05T01:15:35.985Z,32.5
2019-02-05T01:16:26.689Z,32.9
2019-02-05T01:17:16.464Z,33.2
2019-02-05T01:18:07.031Z,33.5
2019-02-05T01:18:57.476Z,33.8
2019-02-05T01:19:48.329Z,34
2019-02-05T01:20:37.433Z,34.3
2019-02-05T01:21:27.119Z,34.4
2019-02-05T01:22:17.999Z,34.6
2019-02-05T01:23:09.516Z,34.1
2019-02-05T01:23:57.286Z,33.9
2019-02-05T01:24:48.283Z,33.6
2019-02-05T01:25:38.391Z,33.3
2019-02-05T01:26:41.214Z,33.1
2019-02-05T01:27:17.308Z,32.8
2019-02-05T01:28:08.172Z,32.6
2019-02-05T01:28:59.428Z,32.5
2019-02-05T01:29:48.032Z,32.3
2019-02-05T01:30:38.166Z,32.1
2019-02-05T01:31:28.646Z,31.9
2019-02-05T01:32:20.951Z,31.8
2019-02-05T01:33:08.318Z,31.4
2019-02-05T01:33:57.748Z,31.1
2019-02-05T01:34:48.896Z,30.8
2019-02-05T01:35:39.593Z,30.6
2019-02-05T01:36:27.190Z,30.4
2019-02-05T01:37:18.915Z,29.9
2019-02-05T01:38:09.083Z,30.1
2019-02-05T01:38:58.115Z,30.9
2019-02-05T01:39:47.993Z,31.5
2019-02-05T01:40:38.758Z,32
2019-02-05T01:41:31.941Z,32.4
2019-02-05T01:42:18.318Z,32.8
2019-02-05T01:43:08.482Z,33.1
2019-02-05T01:43:57.918Z,33.4
2019-02-05T01:44:49.270Z,33.7
2019-02-05T01:45:39.130Z,34
2019-02-05T01:46:29.742Z,34.2
2019-02-05T01:47:19.595Z,34.4
2019-02-05T01:48:07.987Z,34.6
2019-02-05T01:48:59.988Z,34.5
2019-02-05T01:49:49.475Z,34.1
2019-02-05T01:50:41.456Z,33.8
2019-02-05T01:51:29.759Z,33.4
2019-02-05T01:52:18.852Z,33.1
2019-02-05T01:53:08.860Z,32.9
2019-02-05T01:54:00.980Z,32.8
2019-02-05T01:54:49.212Z,32.5
2019-02-05T01:55:40.157Z,32.3
2019-02-05T01:56:42.119Z,32.2
2019-02-05T01:57:20.172Z,32
2019-02-05T01:58:09.564Z,31.9
2019-02-05T01:58:59.789Z,31.6
2019-02-05T01:59:52.714Z,31.1
2019-02-05T02:00:40.591Z,30.9
2019-02-05T02:01:30.570Z,30.7
2019-02-05T02:02:19.184Z,30.5
2019-02-05T02:03:11.989Z,30.1
2019-02-05T02:04:00.137Z,30
2019-02-05T02:04:50.821Z,30.9
2019-02-05T02:05:41.979Z,31.4
2019-02-05T02:06:30.104Z,31.9
2019-02-05T02:07:19.920Z,32.4
2019-02-05T02:08:10.594Z,32.8
2019-02-05T02:09:02.556Z,33.1
2019-02-05T02:09:49.779Z,33.4
2019-02-05T02:10:41.169Z,33.8
2019-02-05T02:11:30.248Z,34
2019-02-05T02:12:21.608Z,34.2
2019-02-05T02:13:10.644Z,34.4
2019-02-05T02:14:01.408Z,34.6
2019-02-05T02:14:53.123Z,34.1
2019-02-05T02:15:41.288Z,33.9
2019-02-05T02:16:31.562Z,33.6
2019-02-05T02:17:21.436Z,33.3
2019-02-05T02:18:14.101Z,33.1
2019-02-05T02:18:59.668Z,32.8
2019-02-05T02:19:51.523Z,32.7
2019-02-05T02:20:41.031Z,32.4
2019-02-05T02:21:31.064Z,32.3
2019-02-05T02:22:21.863Z,32.1
2019-02-05T02:23:12.090Z,31.9
2019-02-05T02:24:04.283Z,31.8
2019-02-05T02:24:52.262Z,31.5
2019-02-05T02:25:42.177Z,31.1
2019-02-05T02:26:31.742Z,30.9
2019-02-05T02:27:25.147Z,30.6
2019-02-05T02:28:12.102Z,30.4
2019-02-05T02:29:02.156Z,29.9
2019-02-05T02:29:53.005Z,30
2019-02-05T02:30:42.530Z,30.9
2019-02-05T02:31:31.452Z,31.5
2019-02-05T02:32:22.765Z,31.9
2019-02-05T02:33:14.980Z,32.4
2019-02-05T02:34:02.342Z,32.8
2019-02-05T02:34:52.767Z,33.1
2019-02-05T02:35:42.646Z,33.4
2019-02-05T02:36:34.209Z,33.7
2019-02-05T02:37:22.833Z,33.9
2019-02-05T02:38:12.442Z,34.2
2019-02-05T02:39:03.119Z,34.4
2019-02-05T02:39:52.679Z,34.6
2019-02-05T02:40:42.489Z,34.3
2019-02-05T02:41:31.884Z,34
2019-02-05T02:42:25.706Z,33.6
2019-02-05T02:43:11.929Z,33.3
2019-02-05T02:44:03.824Z,33.1
2019-02-05T02:44:52.001Z,32.9
2019-02-05T02:45:44.714Z,32.7
2019-02-05T02:46:32.751Z,32.5
2019-02-05T02:47:23.549Z,32.3
2019-02-05T02:48:13.102Z,32.1
2019-02-05T02:49:03.949Z,32
2019-02-05T02:49:53.827Z,31.8
2019-02-05T02:50:44.436Z,31.6
2019-02-05T02:51:35.835Z,31.1
2019-02-05T02:52:23.981Z,30.9
2019-02-05T02:53:13.483Z,30.6
2019-02-05T02:54:04.178Z,30.4
2019-02-05T02:54:59.221Z,30
2019-02-05T02:55:44.748Z,30.1
2019-02-05T02:56:34.086Z,30.9
2019-02-05T02:57:25.061Z,31.4
2019-02-05T02:58:18.016Z,31.9
2019-02-05T02:59:04.502Z,32.4
2019-02-05T02:59:53.745Z,32.8
2019-02-05T03:00:46.455Z,33.1
2019-02-05T03:01:34.225Z,33.4
2019-02-05T03:02:24.000Z,33.7
2019-02-05T03:03:14.703Z,33.9
2019-02-05T03:04:05.072Z,34.1
2019-02-05T03:04:54.013Z,34.4
2019-02-05T03:08:26.670Z,33.5
2019-02-05T03:09:16.945Z,33.3
2019-02-05T03:10:08.690Z,33
2019-02-05T03:10:57.069Z,32.8
2019-02-05T03:11:47.072Z,32.6
2019-02-05T03:12:36.885Z,32.4
2019-02-05T03:13:30.257Z,32.3
2019-02-05T03:14:17.397Z,32.1
2019-02-05T03:15:07.832Z,31.9
2019-02-05T03:15:58.038Z,31.8
2019-02-05T03:16:48.115Z,31.5
2019-02-05T03:17:37.124Z,31.1
2019-02-05T03:18:27.406Z,30.8
2019-02-05T03:19:20.880Z,30.6
2019-02-05T03:20:08.130Z,30.4
2019-02-05T03:20:57.551Z,29.7
2019-02-05T03:21:47.564Z,30.1
2019-02-05T03:22:37.189Z,30.9
2019-02-05T03:23:27.603Z,31.4
2019-02-05T03:24:18.181Z,31.9
2019-02-05T03:25:10.800Z,32.4
2019-02-05T03:25:57.628Z,32.8
2019-02-05T03:26:48.341Z,33.1
2019-02-05T03:27:37.889Z,33.4
2019-02-05T03:28:28.137Z,33.6
2019-02-05T03:29:17.997Z,33.9
2019-02-05T03:30:08.292Z,34.1
2019-02-05T03:31:02.812Z,34.3
2019-02-05T03:31:49.035Z,34.5
2019-02-05T03:32:38.700Z,34.7
2019-02-05T03:33:29.590Z,34.1
2019-02-05T03:34:19.919Z,33.8
2019-02-05T03:35:09.632Z,33.4
2019-02-05T03:35:58.346Z,33.2
2019-02-05T03:36:49.571Z,33
2019-02-05T03:37:37.953Z,32.8
2019-02-05T03:38:27.987Z,32.6
2019-02-05T03:39:18.586Z,32.4
2019-02-05T03:40:12.015Z,32.2
2019-02-05T03:40:58.750Z,32
2019-02-05T03:41:49.305Z,31.8
2019-02-05T03:42:39.999Z,31.7
2019-02-05T03:43:28.598Z,31.2
2019-02-05T03:44:18.702Z,30.9
2019-02-05T03:45:09.395Z,30.7
2019-02-05T03:46:02.215Z,30.5
2019-02-05T03:46:49.284Z,30.3
2019-02-05T03:47:38.497Z,29.6
2019-02-05T03:48:29.372Z,30.5
2019-02-05T03:49:19.590Z,31.1
2019-02-05T03:50:10.237Z,31.6
2019-02-05T03:50:59.730Z,32.1
2019-02-05T03:51:51.733Z,32.5
2019-02-05T03:52:40.100Z,32.9
2019-02-05T03:53:28.730Z,33.2
2019-02-05T03:54:20.192Z,32.9
2019-02-05T03:55:11.462Z,31.9
2019-02-05T03:56:00.257Z,29.9
2019-02-05T03:56:49.995Z,28.7
2019-02-05T03:59:41.088Z,27.6
2019-02-05T03:59:54.694Z,24.4
2019-02-05T04:00:41.554Z,24.5
2019-02-05T04:01:32.356Z,24.9
2019-02-05T04:02:22.146Z,27.1
2019-02-05T04:03:13.966Z,28.6
2019-02-05T04:04:02.354Z,29.8
2019-02-05T04:04:52.271Z,30.8
2019-02-05T04:05:43.429Z,31.5
2019-02-05T04:06:32.383Z,32.1
2019-02-05T04:07:22.161Z,32.6
2019-02-05T04:08:12.558Z,32.9
2019-02-05T04:09:04.729Z,33.3
2019-02-05T04:09:52.718Z,33.7
2019-02-05T04:10:42.634Z,33.9
2019-02-05T04:11:32.993Z,34.2
2019-02-05T04:12:22.693Z,34.4
2019-02-05T04:13:13.125Z,34.6
2019-02-05T04:14:02.635Z,34.4
2019-02-05T04:14:52.946Z,34.1
2019-02-05T04:15:43.562Z,33.8
2019-02-05T04:16:32.824Z,33.4
2019-02-05T04:17:23.217Z,33.2
2019-02-05T04:18:15.221Z,32.9
2019-02-05T04:19:03.222Z,32.7
2019-02-05T04:19:53.369Z,32.6
2019-02-05T04:20:43.646Z,32.3
2019-02-05T04:21:33.442Z,32.2
2019-02-05T04:22:23.766Z,32
2019-02-05T04:23:13.394Z,31.8
2019-02-05T04:24:05.426Z,31.8
2019-02-05T04:24:53.936Z,31.3
2019-02-05T04:25:43.898Z,30.9
2019-02-05T04:26:33.711Z,30.7
2019-02-05T04:27:26.633Z,30.4
2019-02-05T04:28:13.129Z,30
2019-02-05T04:29:04.562Z,29.8
2019-02-05T04:29:54.419Z,30.9
2019-02-05T04:30:44.223Z,31.4
2019-02-05T04:31:34.720Z,31.9
2019-02-05T04:32:24.244Z,32.4
2019-02-05T04:33:16.966Z,32.8
2019-02-05T04:34:04.413Z,33.1
2019-02-05T04:34:54.118Z,33.4
2019-02-05T04:35:44.962Z,33.7
2019-02-05T04:36:36.643Z,34
2019-02-05T04:37:24.282Z,34.2
2019-02-05T04:38:13.854Z,34.4
2019-02-05T04:39:04.543Z,34.6
2019-02-05T04:39:55.095Z,34.3
2019-02-05T04:40:45.380Z,34
2019-02-05T04:41:35.470Z,33.6
2019-02-05T04:42:28.065Z,33.3
2019-02-05T04:43:14.691Z,33.1
2019-02-05T04:44:04.754Z,32.9
2019-02-05T04:44:55.235Z,32.7
2019-02-05T04:45:47.135Z,32.4
2019-02-05T04:46:35.950Z,32.3
2019-02-05T04:47:25.009Z,32.1
2019-02-05T04:48:15.680Z,31.9
2019-02-05T04:49:05.079Z,31.8
2019-02-05T04:49:55.405Z,31.3
2019-02-05T04:50:45.502Z,31
2019-02-05T04:51:38.010Z,30.8
2019-02-05T04:52:25.400Z,30.6
2019-02-05T04:53:16.027Z,30.4
2019-02-05T04:54:06.437Z,29.6
2019-02-05T04:54:56.362Z,30.5
2019-02-05T04:55:45.807Z,31.1
2019-02-05T04:56:35.756Z,31.6
2019-02-05T04:57:27.203Z,32.1
2019-02-05T04:58:16.639Z,32.6
2019-02-05T04:59:06.069Z,32.9
2019-02-05T04:59:56.101Z,33.3
2019-02-05T05:00:49.149Z,33.6
2019-02-05T05:01:36.825Z,33.9
2019-02-05T05:02:26.961Z,34.1
2019-02-05T05:03:17.101Z,34.3
2019-02-05T05:04:06.988Z,34.5
2019-02-05T05:04:55.998Z,34.6
2019-02-05T05:05:46.868Z,34
2019-02-05T05:06:38.237Z,33.7
2019-02-05T05:07:26.666Z,33.4
2019-02-05T05:08:17.267Z,33.1
2019-02-05T05:09:07.175Z,32.9
2019-02-05T05:09:59.513Z,32.7
2019-02-05T05:10:46.718Z,32.5
2019-02-05T05:11:37.011Z,32.3
2019-02-05T05:12:27.205Z,32.1
2019-02-05T05:13:17.190Z,31.9
2019-02-05T05:14:07.181Z,31.8
2019-02-05T05:14:56.977Z,31.7
2019-02-05T05:15:49.317Z,31.2
2019-02-05T05:16:37.130Z,30.9
2019-02-05T05:17:27.010Z,30.6
2019-02-05T05:18:20.506Z,30.4
2019-02-05T05:19:09.581Z,29.9
2019-02-05T05:19:57.311Z,29.8
2019-02-05T05:20:47.908Z,30.8
2019-02-05T05:21:38.802Z,31.3
2019-02-05T05:22:28.445Z,31.9
2019-02-05T05:23:18.462Z,32.3
2019-02-05T05:24:08.422Z,32.7
2019-02-05T05:25:00.883Z,33.1
2019-02-05T05:25:48.747Z,33.4
2019-02-05T05:26:38.225Z,33.6
2019-02-05T05:27:29.280Z,33.9
2019-02-05T05:28:21.004Z,34.1
2019-02-05T05:29:08.548Z,34.3
2019-02-05T05:29:59.277Z,34.5
2019-02-05T05:30:51.098Z,34.7
2019-02-05T05:31:39.577Z,34.1
2019-02-05T05:32:28.895Z,33.8
2019-02-05T05:33:18.949Z,33.5
2019-02-05T05:34:10.190Z,33.2
2019-02-05T05:34:59.121Z,32.9
2019-02-05T05:35:54.041Z,32.8
2019-02-05T05:36:40.456Z,32.5
2019-02-05T05:37:28.698Z,32.4
2019-02-05T05:38:19.646Z,32.2
2019-02-05T05:39:08.976Z,32
2019-02-05T05:40:03.521Z,31.8
2019-02-05T05:40:50.084Z,31.7
2019-02-05T05:41:39.698Z,31.3
2019-02-05T05:42:29.521Z,30.9
2019-02-05T05:43:18.994Z,30.7
2019-02-05T05:44:13.006Z,30.4
2019-02-05T05:44:58.806Z,30.1
2019-02-05T05:45:52.850Z,29.6
2019-02-05T05:46:39.701Z,30.7
2019-02-05T05:47:30.191Z,31.3
2019-02-05T05:48:20.325Z,31.8
2019-02-05T05:49:12.120Z,32.2
2019-02-05T05:50:00.189Z,32.6
2019-02-05T05:50:50.259Z,32.9
2019-02-05T05:51:41.343Z,33.3
2019-02-05T05:52:29.846Z,33.6
2019-02-05T05:53:20.410Z,33.8
2019-02-05T05:54:10.632Z,34.1
2019-02-05T05:55:03.443Z,34.3
2019-02-05T05:55:50.012Z,34.4
2019-02-05T05:56:39.265Z,34.6
2019-02-05T05:57:30.592Z,34.2
2019-02-05T05:58:35.620Z,34
2019-02-05T05:59:10.116Z,33.6
2019-02-05T06:00:00.539Z,33.3
2019-02-05T06:00:54.362Z,33.1
2019-02-05T06:01:40.383Z,32.9
2019-02-05T06:02:30.612Z,32.7
2019-02-05T06:03:21.246Z,32.5
2019-02-05T06:04:12.410Z,32.3
2019-02-05T06:06:26.132Z,31.8
2019-02-05T06:07:15.799Z,31.5
2019-02-05T06:08:07.378Z,31.1
2019-02-05T06:08:59.305Z,30.8
2019-02-05T06:09:47.070Z,30.6
2019-02-05T06:10:35.951Z,30.4
2019-02-05T06:11:26.365Z,29.8
2019-02-05T06:12:15.877Z,30
2019-02-05T06:13:07.271Z,30.9
2019-02-05T06:13:57.360Z,31.4
2019-02-05T06:14:48.056Z,31.9
2019-02-05T06:15:40.412Z,32.4
2019-02-05T06:16:27.561Z,32.8
2019-02-05T06:17:16.757Z,33.1
2019-02-05T06:18:11.489Z,33.4
2019-02-05T06:18:57.792Z,33.7
2019-02-05T06:19:46.712Z,33.9
2019-02-05T06:20:37.402Z,33.3
2019-02-05T06:21:26.534Z,32.2
2019-02-05T06:22:17.813Z,30.1
2019-02-05T06:23:08.371Z,28.8
2019-02-05T06:24:01.153Z,27.7
2019-02-05T06:24:47.468Z,25.9
2019-02-05T06:25:37.028Z,25.3
2019-02-05T06:26:30.766Z,25.4
2019-02-05T06:27:18.457Z,26.8
2019-02-05T06:28:08.426Z,28.4
2019-02-05T06:28:58.188Z,29.7
2019-02-05T06:29:48.885Z,30.8
2019-02-05T06:30:38.056Z,31.6
2019-02-05T06:31:28.115Z,32.2
2019-02-05T06:32:18.895Z,32.7
2019-02-05T06:33:10.490Z,33.1
2019-02-05T06:33:58.813Z,33.5
2019-02-05T06:34:48.623Z,33.8
2019-02-05T06:35:38.725Z,34.1
2019-02-05T06:36:29.274Z,33.6
2019-02-05T06:37:19.366Z,33.4
2019-02-05T06:38:09.058Z,33.1
2019-02-05T06:39:00.945Z,32.8
2019-02-05T06:39:49.467Z,32.6
2019-02-05T06:40:39.742Z,32.4
2019-02-05T06:41:28.780Z,32.2
2019-02-05T06:42:21.980Z,32.1
2019-02-05T06:43:09.149Z,31.8
2019-02-05T06:43:58.407Z,31.7
2019-02-05T06:44:49.720Z,31.6
2019-02-05T06:45:42.116Z,31.4
2019-02-05T06:46:29.597Z,30.8
2019-02-05T06:47:18.597Z,30.4
2019-02-05T06:48:12.622Z,30.2
2019-02-05T06:48:59.474Z,30
2019-02-05T06:49:49.724Z,29.8
2019-02-05T06:50:40.199Z,29.6
2019-02-05T06:51:28.999Z,29.4
2019-02-05T06:52:19.842Z,29.3
2019-02-05T06:53:09.971Z,29.2
2019-02-05T06:54:01.259Z,29
2019-02-05T06:54:49.499Z,28.9
2019-02-05T06:55:39.781Z,28.8
2019-02-05T06:56:30.429Z,28.1
2019-02-05T06:57:21.606Z,29.1
2019-02-05T06:58:10.287Z,30.2
2019-02-05T06:58:59.379Z,30.8
2019-02-05T06:59:50.469Z,31.4
2019-02-05T07:00:38.944Z,31.9
2019-02-05T07:01:30.436Z,32.3
2019-02-05T07:02:19.421Z,32.3
2019-02-05T07:03:13.151Z,32
2019-02-05T07:04:00.948Z,31.7
2019-02-05T07:06:26.025Z,31.1
2019-02-05T07:07:15.900Z,30.8
2019-02-05T07:08:06.158Z,30.7
2019-02-05T07:08:58.756Z,30.5
2019-02-05T07:09:45.759Z,30.3
2019-02-05T07:10:36.967Z,30.2
2019-02-05T07:11:27.028Z,30.1
2019-02-05T07:12:16.710Z,29.6
2019-02-05T07:13:05.935Z,29.2
2019-02-05T07:13:59.777Z,28.9
2019-02-05T07:14:49.169Z,28.7
2019-02-05T07:15:37.083Z,28.6
2019-02-05T07:16:26.910Z,28.4
2019-02-05T07:17:16.902Z,28.3
2019-02-05T07:18:11.618Z,28.2
2019-02-05T07:18:56.592Z,28.1
2019-02-05T07:19:47.260Z,27.9
2019-02-05T07:21:27.344Z,27.4
2019-02-05T07:22:18.130Z,28.1
2019-02-05T07:23:07.932Z,29.4
2019-02-05T07:24:00.007Z,30.3
2019-02-05T07:24:46.777Z,30.9
2019-02-05T07:25:37.933Z,31.5
2019-02-05T07:26:27.393Z,32
2019-02-05T07:27:16.647Z,32.4
2019-02-05T07:28:07.057Z,32.5
2019-02-05T07:29:11.005Z,32.2
2019-02-05T07:29:50.243Z,31.9
2019-02-05T07:30:37.790Z,31.8
2019-02-05T07:31:27.506Z,31.6
2019-02-05T07:32:18.227Z,31.5
2019-02-05T07:33:09.882Z,31.3
2019-02-05T07:33:57.817Z,31.2
2019-02-05T07:34:48.695Z,31
2019-02-05T07:35:39.831Z,30.9
2019-02-05T07:36:28.142Z,30.7
2019-02-05T07:37:19.378Z,30.6
2019-02-05T07:38:08.234Z,29.9
2019-02-05T07:38:59.067Z,29.4
2019-02-05T07:39:48.115Z,29.1
2019-02-05T07:40:38.401Z,28.8
2019-02-05T07:41:30.225Z,28.6
2019-02-05T07:42:18.237Z,28.4
2019-02-05T07:43:07.269Z,28.3
2019-02-05T07:43:57.578Z,28.2
2019-02-05T07:44:51.369Z,28.1
2019-02-05T07:45:37.736Z,27.6
2019-02-05T07:46:28.866Z,28.8
2019-02-05T07:47:23.205Z,29.8
2019-02-05T07:48:08.886Z,30.6
2019-02-05T07:48:58.555Z,31.1
2019-02-05T07:49:50.196Z,31.6
2019-02-05T07:50:42.211Z,32.1
2019-02-05T07:51:29.975Z,32.5
2019-02-05T07:52:19.414Z,32.7
2019-02-05T07:53:09.445Z,32.3
2019-02-05T07:53:58.642Z,32.1
2019-02-05T07:54:49.558Z,31.9
2019-02-05T07:55:39.546Z,31.8
2019-02-05T07:56:32.844Z,31.6
2019-02-05T07:57:20.185Z,31.4
2019-02-05T07:58:10.539Z,31.3
2019-02-05T07:59:12.960Z,31.1
2019-02-05T07:59:55.412Z,30.9
2019-02-05T08:00:40.473Z,30.8
2019-02-05T08:01:29.811Z,30.7
2019-02-05T08:02:23.347Z,30.6
2019-02-05T08:03:10.672Z,29.8
2019-02-05T08:04:00.492Z,29.4
2019-02-05T08:04:50.867Z,29.1
2019-02-05T08:05:42.320Z,28.8
2019-02-05T08:06:30.057Z,28.6
2019-02-05T08:07:20.917Z,28.4
2019-02-05T08:08:24.992Z,28.3
2019-02-05T08:09:01.010Z,28.2
2019-02-05T08:09:50.295Z,27.6
2019-02-05T08:10:40.772Z,28.3
2019-02-05T08:11:32.699Z,29.6
2019-02-05T08:12:21.089Z,30.8
2019-02-05T08:13:11.237Z,31.5
2019-02-05T08:14:01.464Z,31.9
2019-02-05T08:14:51.002Z,32.2
2019-02-05T08:15:40.997Z,32.4
2019-02-05T08:16:34.522Z,32.5
2019-02-05T08:17:21.126Z,32.2
2019-02-05T08:18:11.726Z,32.2
2019-02-05T08:19:01.737Z,32.1
2019-02-05T08:19:53.994Z,32.1
2019-02-05T08:20:42.146Z,31.9
2019-02-05T08:21:31.739Z,31.8
2019-02-05T08:22:22.061Z,31.6
2019-02-05T08:23:12.438Z,31.4
2019-02-05T08:24:01.239Z,31.3
2019-02-05T08:24:52.074Z,31.1
2019-02-05T08:25:43.908Z,30.9
2019-02-05T08:26:31.949Z,30.7
2019-02-05T08:27:21.800Z,29.9
2019-02-05T08:28:12.641Z,29.4
2019-02-05T08:29:04.793Z,29.1
2019-02-05T08:29:51.349Z,28.9
2019-02-05T08:30:41.494Z,28.7
2019-02-05T08:31:32.141Z,28.5
2019-02-05T08:32:22.990Z,28.4
2019-02-05T08:33:11.720Z,28.2
2019-02-05T08:34:05.431Z,28.1
2019-02-05T08:34:55.440Z,27.6
2019-02-05T08:35:42.096Z,28.2
2019-02-05T08:36:32.925Z,29.5
2019-02-05T08:37:23.975Z,30.7
2019-02-05T08:38:12.536Z,31.4
2019-02-05T08:39:03.367Z,31.8
2019-02-05T08:39:51.308Z,32.1
2019-02-05T08:40:45.313Z,32.3
2019-02-05T08:41:31.149Z,32.6
2019-02-05T08:42:22.402Z,32.2
2019-02-05T08:43:12.608Z,32.3
2019-02-05T08:44:05.097Z,32.2
2019-02-05T08:44:53.215Z,32.1
2019-02-05T08:45:43.211Z,32
2019-02-05T08:46:34.822Z,31.9
2019-02-05T08:47:23.648Z,31.7
2019-02-05T08:48:13.738Z,31.6
2019-02-05T08:49:04.054Z,31.4
2019-02-05T08:49:56.352Z,31.3
2019-02-05T08:50:43.837Z,31.1
2019-02-05T08:51:32.599Z,30.9
2019-02-05T08:52:23.761Z,30.8
2019-02-05T08:53:13.497Z,30.6
2019-02-05T08:54:03.876Z,30.4
2019-02-05T08:54:54.062Z,30.3
2019-02-05T08:55:46.929Z,30.2
2019-02-05T08:56:33.611Z,30
2019-02-05T08:57:24.387Z,29.9
2019-02-05T08:59:04.181Z,29.6
2019-02-05T08:59:54.668Z,29.5
2019-02-05T09:00:45.141Z,29.4
2019-02-05T09:01:37.697Z,28.9
2019-02-05T09:02:23.604Z,29
2019-02-05T09:03:15.128Z,30.1
2019-02-05T09:04:04.353Z,31.1
2019-02-05T09:04:55.950Z,31.7
2019-02-05T09:05:45.483Z,32
2019-02-05T09:06:38.512Z,32.2
2019-02-05T09:07:26.531Z,32.4
2019-02-05T09:08:15.331Z,32.6
2019-02-05T09:09:04.926Z,32.3
2019-02-05T09:09:55.278Z,32.3
2019-02-05T09:10:47.138Z,32.3
2019-02-05T09:11:34.383Z,32.2
2019-02-05T09:12:28.260Z,32.1
2019-02-05T09:13:14.700Z,31.9
2019-02-05T09:14:19.520Z,31.8
2019-02-05T09:14:54.600Z,31.6
2019-02-05T09:15:45.247Z,31.5
2019-02-05T09:16:37.982Z,31.4
2019-02-05T09:17:28.357Z,31.2
2019-02-05T09:18:14.298Z,31
2019-02-05T09:19:06.294Z,30.9
2019-02-05T09:19:55.222Z,30.8
2019-02-05T09:20:45.215Z,30.6
2019-02-05T09:21:35.455Z,30.4
2019-02-05T09:22:27.814Z,30.3
2019-02-05T09:23:19.303Z,30.1
2019-02-05T09:24:05.957Z,30
2019-02-05T09:24:55.267Z,29.9
2019-02-05T09:25:51.237Z,29.8
2019-02-05T09:26:36.369Z,29.6
2019-02-05T09:27:27.062Z,29.4
2019-02-05T09:28:16.847Z,29.3
2019-02-05T09:29:06.934Z,28.6
2019-02-05T09:29:56.594Z,29.4
2019-02-05T09:30:47.532Z,30.5
2019-02-05T09:31:39.297Z,31.4
2019-02-05T09:32:26.532Z,31.8
2019-02-05T09:33:17.072Z,32
2019-02-05T09:34:06.454Z,32.3
2019-02-05T09:34:57.314Z,32.4
2019-02-05T09:35:46.656Z,32.7
2019-02-05T09:36:35.916Z,32.3
2019-02-05T09:37:28.636Z,32.4
2019-02-05T09:38:33.582Z,32.3
2019-02-05T09:39:57.666Z,32.1
2019-02-05T09:40:48.534Z,32
2019-02-05T09:41:36.641Z,31.8
2019-02-05T09:42:26.546Z,31.7
2019-02-05T09:43:19.050Z,31.6
2019-02-05T09:44:07.318Z,31.3
2019-02-05T09:44:58.322Z,31.2
2019-02-05T09:45:47.886Z,31.1
2019-02-05T09:46:40.468Z,30.9
2019-02-05T09:47:28.458Z,30.7
2019-02-05T09:48:18.198Z,30.6
2019-02-05T09:49:22.189Z,30.4
2019-02-05T09:49:58.268Z,30.3
2019-02-05T09:50:55.635Z,30.1
2019-02-05T09:51:38.941Z,30
2019-02-05T09:52:31.036Z,29.9
2019-02-05T09:53:18.619Z,29.7
2019-02-05T09:54:08.050Z,29.6
2019-02-05T09:54:58.305Z,29.4
2019-02-05T09:55:52.781Z,29.3
2019-02-05T09:56:38.543Z,28.6
2019-02-05T09:57:28.725Z,29.4
2019-02-05T09:58:19.527Z,30.5
2019-02-05T09:59:08.650Z,31.5
2019-02-05T09:59:57.417Z,31.8
2019-02-05T10:00:48.990Z,32
2019-02-05T10:01:39.853Z,32.3
2019-02-05T10:02:29.942Z,32.5
2019-02-05T10:03:19.650Z,32.7
2019-02-05T10:04:09.672Z,32.3
2019-02-05T10:04:59.502Z,32.3
2019-02-05T10:07:41.990Z,32.1
2019-02-05T10:08:20.159Z,31.9
2019-02-05T10:09:22.634Z,31.8
2019-02-05T10:10:17.102Z,31.6
2019-02-05T10:10:51.601Z,31.4
2019-02-05T10:12:24.621Z,31.4
2019-02-05T10:12:37.349Z,31.1
2019-02-05T10:14:13.819Z,31
2019-02-05T10:14:57.524Z,30.8
2019-02-05T10:15:59.334Z,30.6
2019-02-05T10:16:28.879Z,30.4
2019-02-05T10:18:40.354Z,30.1
2019-02-05T10:18:56.123Z,30
2019-02-05T10:20:14.898Z,29.9
2019-02-05T10:20:50.873Z,29.7
2019-02-05T10:22:21.319Z,29.6
2019-02-05T10:23:04.583Z,29.4
2019-02-05T10:23:40.621Z,28.9
2019-02-05T10:24:45.070Z,28.8
2019-02-05T10:25:34.409Z,30.3
2019-02-05T10:26:46.528Z,31.4
2019-02-05T10:27:02.883Z,31.8
2019-02-05T10:27:48.433Z,31.9
2019-02-05T10:28:38.492Z,32.1
2019-02-05T10:29:31.903Z,32.4
2019-02-05T10:30:16.955Z,32.7
2019-02-05T10:31:07.508Z,33
2019-02-05T10:32:13.913Z,32.5
2019-02-05T10:32:50.988Z,32.4
2019-02-05T10:33:38.640Z,32.4
2019-02-05T10:34:40.942Z,32.3
2019-02-05T10:35:20.287Z,32.1
2019-02-05T10:36:12.040Z,32
2019-02-05T10:36:58.535Z,31.8
2019-02-05T10:38:03.870Z,31.7
2019-02-05T10:38:40.550Z,31.5
2019-02-05T10:39:30.102Z,31.3
2019-02-05T10:40:19.447Z,31.2
2019-02-05T10:41:09.590Z,31.1
2019-02-05T10:41:59.557Z,30.9
2019-02-05T10:42:52.285Z,30.8
2019-02-05T10:43:39.604Z,30.6
2019-02-05T10:44:31.953Z,30.5
2019-02-05T10:45:52.439Z,30.3
2019-02-05T10:46:08.813Z,30.1
2019-02-05T10:46:58.759Z,30.1
2019-02-05T10:47:48.709Z,29.9
2019-02-05T10:48:40.125Z,29.8
2019-02-05T10:49:30.387Z,29.7
2019-02-05T10:50:22.774Z,29.6
2019-02-05T10:51:08.770Z,29.3
2019-02-05T10:51:58.217Z,28.9
2019-02-05T10:52:49.786Z,30
2019-02-05T10:53:40.502Z,31.2
2019-02-05T10:54:29.804Z,31.6
2019-02-05T10:55:19.406Z,31.9
2019-02-05T10:56:11.949Z,32.3
2019-02-05T10:56:59.559Z,32.5
2019-02-05T10:57:50.256Z,32.8
2019-02-05T10:58:39.592Z,32.8
2019-02-05T10:59:33.044Z,32.6
2019-02-05T11:00:34.629Z,32.5
2019-02-05T11:01:10.041Z,32.4
2019-02-05T11:02:01.431Z,32.3
2019-02-05T11:02:51.825Z,32.2
2019-02-05T11:03:40.389Z,32
2019-02-05T11:04:31.247Z,31.9
2019-02-05T11:05:22.791Z,31.7
2019-02-05T11:06:09.988Z,31.6
2019-02-05T11:07:00.675Z,31.4
2019-02-05T11:07:51.865Z,31.3
2019-02-05T11:08:55.898Z,31.1
2019-02-05T11:09:31.028Z,30.9
2019-02-05T11:10:20.878Z,30.8
2019-02-05T11:11:13.898Z,30.6
2019-02-05T11:12:01.375Z,30.5
2019-02-05T11:12:51.103Z,30.4
2019-02-05T11:13:41.115Z,30.3
2019-02-05T11:14:32.443Z,30.1
2019-02-05T11:15:22.332Z,29.9
2019-02-05T11:16:11.976Z,29.8
2019-02-05T11:17:01.935Z,29.7
2019-02-05T11:17:51.351Z,29.6
2019-02-05T11:18:41.938Z,29.3
2019-02-05T11:19:31.587Z,29.3
2019-02-05T11:20:24.660Z,30.6
2019-02-05T11:21:14.915Z,31.3
2019-02-05T11:22:01.442Z,31.7